Time;durP1;ratioP1;P1;durP2;ratioP2;P2;SDS_P1;SDS_P2;PMS_P1;PMS_P2;Temp;Humidity;BMP_temperature;BMP_pressure;BME280_temperature;BME280_humidity;BME280_pressure;Samples;Min_cycle;Max_cycle;Signal;HPM_P1;HPM_P2
2023/06/14 00:01:06;;;;;;;1.23;1.20;;;18.50;94.60;;;;;;5113209;28;20212;-57
2023/06/14 00:03:32;;;;;;;1.10;1.10;;;18.40;94.90;;;;;;5112283;28;20259;-65
2023/06/14 00:05:59;;;;;;;1.20;1.20;;;18.40;95.40;;;;;;5113600;28;20233;-57
2023/06/14 00:08:26;;;;;;;1.40;1.33;;;18.50;95.10;;;;;;5123641;22;20296;-63
2023/06/14 00:10:53;;;;;;;1.20;1.20;;;18.50;94.90;;;;;;5047588;28;20223;-64
2023/06/14 00:13:21;;;;;;;1.20;1.20;;;18.30;95.20;;;;;;5052594;28;20207;-63
2023/06/14 00:15:48;;;;;;;1.20;1.20;;;18.20;95.90;;;;;;5052822;28;20204;-64
2023/06/14 00:18:16;;;;;;;1.20;1.20;;;18.00;95.50;;;;;;5052812;28;20236;-64
2023/06/14 00:20:43;;;;;;;1.30;1.30;;;17.80;95.90;;;;;;5057978;28;20207;-63
2023/06/14 00:23:10;;;;;;;1.38;1.30;;;17.80;96.20;;;;;;5079358;28;20211;-62
2023/06/14 00:25:37;;;;;;;1.30;1.30;;;17.90;96.30;;;;;;5076019;28;20211;-64
2023/06/14 00:28:04;;;;;;;1.25;1.20;;;18.00;96.10;;;;;;5072280;28;20203;-63
2023/06/14 00:30:32;;;;;;;2.20;1.13;;;17.90;96.10;;;;;;5058787;28;20228;-63
2023/06/14 00:32:59;;;;;;;1.15;1.15;;;17.80;96.40;;;;;;5052051;28;20671;-63
2023/06/14 00:35:26;;;;;;;1.00;1.00;;;17.90;96.50;;;;;;5051826;28;20208;-64
2023/06/14 00:37:54;;;;;;;1.20;1.20;;;18.00;96.80;;;;;;5051555;28;20692;-63
2023/06/14 00:40:21;;;;;;;1.23;1.20;;;18.00;97.10;;;;;;5050988;28;20203;-63
2023/06/14 00:42:48;;;;;;;1.20;1.20;;;18.00;96.70;;;;;;5051379;28;20204;-63
2023/06/14 00:45:15;;;;;;;1.40;1.30;;;17.90;96.80;;;;;;5051792;28;20422;-62
2023/06/14 00:47:44;;;;;;;1.10;1.10;;;17.80;97.00;;;;;;5051392;28;20204;-64
2023/06/14 00:50:12;;;;;;;1.30;1.20;;;17.70;97.10;;;;;;5050856;28;20319;-63
2023/06/14 00:52:40;;;;;;;1.40;1.30;;;17.70;97.30;;;;;;5051589;28;20210;-63
2023/06/14 00:55:07;;;;;;;1.27;1.27;;;17.70;97.60;;;;;;5051707;28;20246;-63
2023/06/14 00:57:37;;;;;;;1.20;1.20;;;17.80;97.30;;;;;;5052576;28;20758;-65
2023/06/14 01:00:08;;;;;;;1.38;1.27;;;17.70;97.80;;;;;;5051140;28;20565;-62
2023/06/14 01:02:36;;;;;;;1.33;1.30;;;17.80;97.50;;;;;;5052364;28;20207;-66
2023/06/14 01:05:07;;;;;;;1.15;1.15;;;17.80;98.00;;;;;;5052859;28;20654;-63
2023/06/14 01:07:42;;;;;;;1.10;1.10;;;17.90;98.00;;;;;;5053203;28;20285;-64
2023/06/14 01:10:21;;;;;;;1.20;1.20;;;17.90;97.50;;;;;;5051162;28;20253;-62
2023/06/14 01:12:57;;;;;;;1.45;1.35;;;17.90;97.40;;;;;;5051465;28;20207;-63
2023/06/14 01:15:24;;;;;;;1.25;1.20;;;17.80;97.70;;;;;;5051090;28;20784;-63
2023/06/14 01:17:53;;;;;;;1.20;1.20;;;17.80;97.40;;;;;;5051398;28;20283;-62
2023/06/14 01:20:29;;;;;;;1.25;1.25;;;17.80;97.20;;;;;;5051203;28;20200;-63
2023/06/14 01:22:57;;;;;;;1.48;1.38;;;17.70;97.50;;;;;;5051394;28;20638;-62
2023/06/14 01:25:25;;;;;;;1.20;1.17;;;17.50;97.60;;;;;;5051174;28;20302;-63
2023/06/14 01:27:54;;;;;;;1.05;1.05;;;17.40;97.70;;;;;;5049396;28;20203;-62
2023/06/14 01:30:25;;;;;;;1.10;1.10;;;17.30;97.80;;;;;;5050711;28;20239;-62
2023/06/14 01:32:53;;;;;;;1.15;1.15;;;17.30;98.20;;;;;;5050732;28;20302;-62
2023/06/14 01:35:20;;;;;;;0.90;0.90;;;17.20;98.10;;;;;;5051152;28;20200;-63
2023/06/14 01:37:49;;;;;;;1.52;1.20;;;17.20;98.50;;;;;;5051463;28;20233;-64
2023/06/14 01:40:19;;;;;;;1.25;1.15;;;17.30;98.60;;;;;;5049657;28;20219;-64
2023/06/14 01:42:47;;;;;;;1.20;1.10;;;17.40;98.50;;;;;;5056429;28;20694;-63
2023/06/14 01:45:14;;;;;;;1.02;1.00;;;17.40;98.40;;;;;;5067203;28;20213;-65
2023/06/14 01:47:42;;;;;;;1.00;1.00;;;17.40;98.40;;;;;;5072661;28;20210;-64
2023/06/14 01:50:09;;;;;;;1.15;1.10;;;17.30;98.50;;;;;;5070581;28;20600;-63
2023/06/14 01:52:37;;;;;;;1.52;1.20;;;17.10;98.60;;;;;;5071762;28;20211;-63
2023/06/14 01:55:05;;;;;;;1.30;1.20;;;17.00;98.70;;;;;;5071980;28;20891;-65
2023/06/14 01:57:33;;;;;;;1.13;1.13;;;17.00;99.20;;;;;;5071910;28;20203;-63
2023/06/14 02:00:00;;;;;;;1.30;1.23;;;16.90;99.10;;;;;;5071509;28;20258;-62
2023/06/14 02:02:27;;;;;;;1.05;1.05;;;16.90;99.10;;;;;;5056960;28;20290;-63
2023/06/14 02:04:57;;;;;;;1.38;1.30;;;16.80;99.70;;;;;;5051589;28;20207;-63
2023/06/14 02:07:24;;;;;;;1.33;1.33;;;16.80;99.50;;;;;;5052169;28;20215;-63
2023/06/14 02:09:50;;;;;;;1.20;1.20;;;16.70;99.40;;;;;;5051102;28;20635;-63
2023/06/14 02:12:17;;;;;;;1.23;1.23;;;16.60;99.60;;;;;;5051529;28;20206;-63
2023/06/14 02:14:46;;;;;;;1.20;1.20;;;16.60;99.80;;;;;;5051403;28;20306;-62
2023/06/14 02:17:13;;;;;;;1.30;1.20;;;16.60;99.90;;;;;;5052122;28;20303;-62
2023/06/14 02:19:40;;;;;;;1.20;1.10;;;16.50;99.80;;;;;;5051788;28;20246;-64
2023/06/14 02:22:07;;;;;;;1.17;1.17;;;16.50;99.90;;;;;;5054539;28;20207;-64
2023/06/14 02:24:35;;;;;;;1.20;1.20;;;16.50;99.90;;;;;;5051939;28;20736;-63
2023/06/14 02:27:03;;;;;;;1.40;1.30;;;16.60;99.90;;;;;;5055400;28;20250;-62
2023/06/14 02:29:30;;;;;;;1.40;1.30;;;16.60;99.90;;;;;;5055475;28;20259;-62
2023/06/14 02:31:58;;;;;;;1.40;1.30;;;16.60;99.90;;;;;;5057024;28;20228;-63
2023/06/14 02:34:25;;;;;;;1.00;1.00;;;16.50;99.90;;;;;;5060656;28;20206;-63
2023/06/14 02:36:52;;;;;;;1.17;1.17;;;16.50;99.90;;;;;;5060550;28;20688;-62
2023/06/14 02:39:20;;;;;;;1.25;1.00;;;16.40;99.90;;;;;;5064474;28;20224;-62
2023/06/14 02:41:47;;;;;;;1.10;1.10;;;16.20;99.90;;;;;;5082295;28;20210;-64
2023/06/14 02:44:15;;;;;;;1.27;1.17;;;16.30;99.90;;;;;;5072813;28;20250;-61
2023/06/14 02:46:43;;;;;;;1.25;1.23;;;16.20;99.90;;;;;;5068399;28;20200;-64
2023/06/14 02:49:12;;;;;;;1.00;1.00;;;16.20;99.90;;;;;;5065042;28;20256;-61
2023/06/14 02:51:38;;;;;;;1.00;1.00;;;16.20;99.90;;;;;;5055362;28;20224;-63
2023/06/14 02:54:05;;;;;;;1.40;1.30;;;16.20;99.90;;;;;;5054459;28;20203;-63
2023/06/14 02:56:32;;;;;;;1.10;1.00;;;16.10;99.90;;;;;;5054805;28;20200;-64
2023/06/14 02:59:00;;;;;;;1.20;1.10;;;16.10;99.90;;;;;;5074412;28;20237;-63
2023/06/14 03:01:34;;;;;;;1.13;1.10;;;16.00;99.90;;;;;;5074063;28;20199;-62
2023/06/14 03:04:01;;;;;;;1.10;1.10;;;15.90;99.90;;;;;;5073737;28;20668;-62
2023/06/14 03:06:30;;;;;;;1.40;1.30;;;15.90;99.90;;;;;;5074019;28;20208;-63
2023/06/14 03:08:59;;;;;;;1.20;1.20;;;15.90;99.90;;;;;;5073924;28;20233;-61
2023/06/14 03:11:26;;;;;;;1.40;1.30;;;15.90;99.90;;;;;;5073828;28;20498;-64
2023/06/14 03:13:53;;;;;;;1.33;1.23;;;15.90;99.90;;;;;;5073895;28;20203;-64
2023/06/14 03:16:22;;;;;;;1.40;1.30;;;16.00;99.90;;;;;;5074497;28;20211;-64
2023/06/14 03:18:49;;;;;;;4.53;1.75;;;16.10;99.90;;;;;;5073440;28;20242;-61
2023/06/14 03:21:17;;;;;;;1.17;1.17;;;16.20;99.90;;;;;;5073437;28;20208;-62
2023/06/14 03:23:45;;;;;;;1.55;1.50;;;16.10;99.90;;;;;;5073403;28;20203;-62
2023/06/14 03:26:14;;;;;;;0.90;0.90;;;16.10;99.90;;;;;;5073534;28;20203;-62
2023/06/14 03:28:41;;;;;;;1.00;1.00;;;16.00;99.90;;;;;;5073563;28;20594;-64
2023/06/14 03:31:08;;;;;;;1.10;1.10;;;16.00;99.90;;;;;;5073353;28;20223;-62
2023/06/14 03:33:35;;;;;;;1.10;1.05;;;15.90;99.90;;;;;;5073643;28;20618;-62
2023/06/14 03:36:03;;;;;;;1.20;1.20;;;15.80;99.90;;;;;;5073927;28;20207;-63
2023/06/14 03:38:30;;;;;;;2.28;1.05;;;15.80;99.90;;;;;;5073035;28;20321;-63
2023/06/14 03:40:58;;;;;;;1.17;1.17;;;15.80;99.90;;;;;;5073196;28;20206;-64
2023/06/14 03:43:25;;;;;;;1.20;1.20;;;15.70;99.90;;;;;;5073336;28;20203;-62
2023/06/14 03:45:52;;;;;;;1.10;1.10;;;15.60;99.90;;;;;;5064537;28;20208;-62
2023/06/14 03:48:19;;;;;;;1.40;1.20;;;15.60;99.90;;;;;;5052698;28;20228;-64
2023/06/14 03:50:46;;;;;;;1.10;1.10;;;15.60;99.90;;;;;;5052566;28;20327;-62
2023/06/14 03:53:12;;;;;;;1.02;1.02;;;15.80;99.90;;;;;;5052967;28;20694;-62
2023/06/14 03:55:40;;;;;;;1.08;1.08;;;16.10;99.90;;;;;;5053260;28;20203;-64
2023/06/14 03:58:08;;;;;;;1.08;1.08;;;16.40;99.90;;;;;;5053037;28;20215;-62
2023/06/14 04:00:35;;;;;;;1.13;1.10;;;16.60;99.90;;;;;;5052926;28;20196;-62
2023/06/14 04:03:04;;;;;;;1.13;1.10;;;16.80;99.90;;;;;;5053266;28;20212;-61
2023/06/14 04:05:31;;;;;;;1.35;1.02;;;16.90;99.90;;;;;;5053138;28;20208;-62
2023/06/14 04:07:58;;;;;;;0.98;0.98;;;17.00;99.90;;;;;;5053157;28;20211;-64
2023/06/14 04:10:25;;;;;;;1.00;1.00;;;17.00;99.90;;;;;;5052984;28;20274;-63
2023/06/14 04:12:52;;;;;;;1.25;1.20;;;17.00;99.90;;;;;;5055635;28;20207;-64
2023/06/14 04:15:20;;;;;;;1.20;1.20;;;17.10;99.90;;;;;;5055351;28;20207;-62
2023/06/14 04:17:47;;;;;;;1.00;1.00;;;17.10;99.90;;;;;;5053649;28;20211;-61
2023/06/14 04:20:14;;;;;;;1.20;1.20;;;17.10;99.90;;;;;;5053599;28;20731;-63
2023/06/14 04:22:43;;;;;;;1.20;1.20;;;17.00;99.90;;;;;;5052421;28;20192;-62
2023/06/14 04:25:10;;;;;;;1.52;1.17;;;17.10;99.90;;;;;;5052060;28;20235;-64
2023/06/14 04:27:36;;;;;;;1.58;1.30;;;17.00;99.90;;;;;;5052361;28;20210;-62
2023/06/14 04:30:04;;;;;;;1.30;1.20;;;17.10;99.90;;;;;;5051855;28;20712;-63
2023/06/14 04:32:38;;;;;;;1.48;1.40;;;17.10;99.90;;;;;;5051764;28;20220;-62
2023/06/14 04:35:05;;;;;;;1.15;1.15;;;17.10;99.90;;;;;;5053369;28;20232;-64
2023/06/14 04:37:33;;;;;;;1.50;1.40;;;17.00;99.90;;;;;;5055545;28;20243;-64
2023/06/14 04:40:00;;;;;;;1.20;1.20;;;16.90;99.90;;;;;;5052996;28;20224;-62
2023/06/14 04:42:30;;;;;;;1.02;1.02;;;16.90;99.90;;;;;;5052762;28;20204;-63
2023/06/14 04:44:58;;;;;;;1.10;1.10;;;16.90;99.90;;;;;;5061806;28;20207;-62
2023/06/14 04:47:29;;;;;;;1.35;1.20;;;17.10;99.90;;;;;;5052459;28;20218;-62
2023/06/14 04:49:57;;;;;;;1.30;1.20;;;17.20;99.90;;;;;;5051367;28;20220;-64
2023/06/14 04:52:26;;;;;;;1.33;1.23;;;17.20;99.90;;;;;;5052132;28;20259;-65
2023/06/14 04:54:54;;;;;;;1.17;1.17;;;17.20;99.90;;;;;;5051661;28;20218;-64
2023/06/14 04:57:22;;;;;;;2.30;1.20;;;17.20;99.90;;;;;;5054364;28;20276;-63
2023/06/14 04:59:54;;;;;;;1.20;1.20;;;17.10;99.90;;;;;;5055248;28;20282;-63
2023/06/14 05:02:23;;;;;;;1.23;1.13;;;17.10;99.90;;;;;;5051902;28;20203;-62
2023/06/14 05:04:51;;;;;;;1.15;1.13;;;17.10;99.90;;;;;;5051621;28;20232;-62
2023/06/14 05:07:19;;;;;;;1.10;1.10;;;17.10;99.90;;;;;;5051738;28;20318;-64
2023/06/14 05:09:46;;;;;;;1.27;1.27;;;17.30;99.90;;;;;;5050790;28;20235;-62
2023/06/14 05:12:14;;;;;;;1.20;1.10;;;17.40;99.90;;;;;;5048295;28;20234;-64
2023/06/14 05:14:41;;;;;;;1.70;1.60;;;17.60;99.90;;;;;;5048153;28;20693;-63
2023/06/14 05:17:08;;;;;;;1.20;1.20;;;17.70;99.90;;;;;;5052285;28;20273;-64
2023/06/14 05:19:35;;;;;;;1.23;1.23;;;17.90;99.90;;;;;;5052336;28;20228;-64
2023/06/14 05:22:02;;;;;;;1.60;1.50;;;18.10;99.90;;;;;;5052810;28;20253;-62
2023/06/14 05:24:32;;;;;;;1.25;1.25;;;18.20;99.90;;;;;;5051550;28;20261;-62
2023/06/14 05:26:58;;;;;;;1.73;1.45;;;18.30;99.90;;;;;;5052086;28;20204;-62
2023/06/14 05:29:25;;;;;;;1.50;1.40;;;18.40;99.90;;;;;;5051413;28;20232;-61
2023/06/14 05:31:52;;;;;;;3.08;1.40;;;18.60;99.90;;;;;;5050559;28;20258;-63
2023/06/14 05:34:19;;;;;;;1.42;1.33;;;18.70;99.90;;;;;;5049136;28;20203;-62
2023/06/14 05:36:46;;;;;;;1.67;1.20;;;18.70;99.90;;;;;;5050747;28;20200;-62
2023/06/14 05:39:14;;;;;;;1.50;1.40;;;18.80;99.90;;;;;;5039875;28;20228;-61
2023/06/14 05:41:42;;;;;;;1.27;1.27;;;18.90;99.90;;;;;;5052363;28;20199;-62
2023/06/14 05:44:10;;;;;;;1.33;1.20;;;19.00;99.90;;;;;;5051986;28;20192;-64
2023/06/14 05:46:37;;;;;;;1.40;1.30;;;19.20;99.90;;;;;;5051723;28;20291;-61
2023/06/14 05:49:03;;;;;;;1.30;1.30;;;19.30;99.90;;;;;;5050738;28;20593;-62
2023/06/14 05:51:30;;;;;;;1.20;1.20;;;19.40;99.90;;;;;;5050794;28;20223;-63
2023/06/14 05:53:57;;;;;;;1.20;1.20;;;19.50;99.90;;;;;;5050877;28;20295;-62
2023/06/14 05:56:25;;;;;;;1.52;1.42;;;19.40;99.90;;;;;;5046935;28;20265;-63
2023/06/14 05:58:54;;;;;;;1.67;1.40;;;19.50;99.90;;;;;;5050164;28;20235;-61
2023/06/14 06:01:21;;;;;;;1.40;1.30;;;19.50;99.90;;;;;;5051821;28;20283;-63
2023/06/14 06:03:47;;;;;;;1.50;1.40;;;19.60;99.90;;;;;;5054353;28;20587;-62
2023/06/14 06:06:14;;;;;;;1.40;1.30;;;19.70;99.90;;;;;;5056745;28;20212;-61
2023/06/14 06:08:42;;;;;;;1.52;1.10;;;19.70;99.90;;;;;;5075325;22;20502;-63
2023/06/14 06:11:09;;;;;;;1.50;1.40;;;19.70;99.90;;;;;;5031655;28;20207;-63
2023/06/14 06:13:36;;;;;;;1.23;1.15;;;19.80;99.90;;;;;;5037291;28;20266;-61
2023/06/14 06:16:05;;;;;;;1.30;1.20;;;20.00;99.90;;;;;;5041212;28;20268;-64
2023/06/14 06:18:32;;;;;;;1.38;1.38;;;20.10;99.90;;;;;;5036023;28;20670;-60
2023/06/14 06:20:59;;;;;;;1.77;1.60;;;20.20;99.90;;;;;;5032353;28;20208;-63
2023/06/14 06:23:26;;;;;;;1.40;1.30;;;20.30;99.90;;;;;;5033041;28;20220;-63
2023/06/14 06:25:53;;;;;;;1.50;1.40;;;20.50;99.90;;;;;;5035184;28;20204;-65
2023/06/14 06:28:20;;;;;;;1.33;1.27;;;20.70;99.90;;;;;;5034774;28;20219;-64
2023/06/14 06:30:47;;;;;;;1.30;1.20;;;20.80;99.90;;;;;;5034913;28;20208;-62
2023/06/14 06:33:15;;;;;;;2.55;1.40;;;20.80;99.90;;;;;;5037648;28;20220;-62
2023/06/14 06:35:42;;;;;;;1.13;1.13;;;20.80;99.90;;;;;;5038549;28;20205;-62
2023/06/14 06:38:09;;;;;;;1.67;1.58;;;20.80;99.90;;;;;;5036818;28;20666;-63
2023/06/14 06:40:36;;;;;;;1.40;1.30;;;20.60;99.90;;;;;;5034503;28;20319;-64
2023/06/14 06:43:03;;;;;;;1.60;1.50;;;20.70;99.90;;;;;;5035383;28;20208;-60
2023/06/14 06:45:30;;;;;;;1.48;1.45;;;20.60;99.90;;;;;;5033876;28;20216;-63
2023/06/14 06:47:57;;;;;;;1.50;1.40;;;20.60;99.90;;;;;;5036307;28;20205;-61
2023/06/14 06:50:25;;;;;;;1.75;1.65;;;20.60;99.90;;;;;;5035541;28;20224;-62
2023/06/14 06:52:54;;;;;;;2.25;1.65;;;20.50;99.90;;;;;;5036051;28;20256;-62
2023/06/14 06:55:21;;;;;;;2.22;1.50;;;20.60;99.90;;;;;;5035930;28;20270;-63
2023/06/14 06:57:49;;;;;;;1.90;1.80;;;20.70;99.90;;;;;;5035339;28;20227;-63
2023/06/14 07:00:17;;;;;;;1.70;1.60;;;20.50;99.90;;;;;;5034558;28;20231;-63
2023/06/14 07:02:44;;;;;;;1.80;1.70;;;20.40;99.90;;;;;;5034542;28;20569;-63
2023/06/14 07:05:11;;;;;;;2.22;1.92;;;20.60;99.90;;;;;;5034635;28;20685;-62
2023/06/14 07:07:39;;;;;;;1.88;1.55;;;20.60;99.90;;;;;;5034882;28;20295;-61
2023/06/14 07:10:07;;;;;;;2.45;1.67;;;20.70;99.90;;;;;;5034526;28;20236;-62
2023/06/14 07:12:39;;;;;;;1.55;1.45;;;20.80;99.90;;;;;;5034094;28;20682;-62
2023/06/14 07:15:07;;;;;;;3.22;1.80;;;20.90;99.90;;;;;;5034320;28;20295;-62
2023/06/14 07:17:34;;;;;;;1.90;1.80;;;21.00;99.90;;;;;;5034225;28;20220;-64
2023/06/14 07:20:11;;;;;;;1.85;1.70;;;20.70;99.90;;;;;;5035535;28;20316;-63
2023/06/14 07:22:41;;;;;;;2.35;1.55;;;21.00;99.90;;;;;;5037228;28;20669;-61
2023/06/14 07:25:09;;;;;;;1.70;1.60;;;21.10;99.90;;;;;;5037379;28;20195;-61
2023/06/14 07:27:36;;;;;;;1.92;1.77;;;21.30;99.90;;;;;;5036870;28;20314;-62
2023/06/14 07:30:03;;;;;;;1.83;1.73;;;21.50;99.90;;;;;;5038100;28;20225;-64
2023/06/14 07:32:29;;;;;;;1.88;1.77;;;21.60;99.90;;;;;;5036007;28;20239;-62
2023/06/14 07:34:56;;;;;;;1.73;1.63;;;21.60;99.90;;;;;;5034454;28;20240;-63
2023/06/14 07:37:23;;;;;;;2.05;1.40;;;21.70;99.90;;;;;;5034040;28;20208;-63
2023/06/14 07:39:51;;;;;;;1.42;1.38;;;21.80;99.90;;;;;;5033711;28;20240;-62
2023/06/14 07:42:18;;;;;;;1.48;1.38;;;21.90;99.90;;;;;;5034286;28;20207;-62
2023/06/14 07:44:45;;;;;;;1.60;1.50;;;22.00;99.90;;;;;;5033868;28;20217;-62
2023/06/14 07:47:12;;;;;;;1.50;1.40;;;22.10;99.90;;;;;;5033938;28;20200;-62
2023/06/14 07:49:39;;;;;;;2.42;1.48;;;22.20;99.90;;;;;;5033926;28;20263;-63
2023/06/14 07:52:07;;;;;;;1.83;1.42;;;22.20;99.50;;;;;;5034577;28;20224;-63
2023/06/14 07:54:33;;;;;;;1.52;1.40;;;22.30;99.70;;;;;;5033956;28;20213;-61
2023/06/14 07:57:02;;;;;;;2.25;1.80;;;22.40;99.50;;;;;;5034337;28;20640;-62
2023/06/14 07:59:29;;;;;;;1.45;1.38;;;22.50;99.80;;;;;;5034073;28;20236;-63
2023/06/14 08:01:56;;;;;;;1.40;1.30;;;22.50;99.80;;;;;;5034332;28;20236;-62
2023/06/14 08:04:23;;;;;;;1.40;1.30;;;22.60;99.90;;;;;;5035237;28;20200;-61
2023/06/14 08:06:50;;;;;;;1.60;1.50;;;22.80;99.90;;;;;;5035820;28;20209;-62
2023/06/14 08:09:17;;;;;;;1.10;1.10;;;22.90;99.90;;;;;;5044667;28;20279;-62
2023/06/14 08:11:44;;;;;;;1.50;1.40;;;22.90;99.60;;;;;;5044666;28;20272;-62
2023/06/14 08:14:12;;;;;;;1.42;1.10;;;22.90;99.20;;;;;;5037556;28;20243;-62
2023/06/14 08:16:39;;;;;;;1.23;1.23;;;23.00;98.30;;;;;;5034953;28;20292;-61
2023/06/14 08:19:06;;;;;;;1.65;1.30;;;23.00;97.60;;;;;;5032833;28;20232;-64
2023/06/14 08:21:33;;;;;;;1.50;1.40;;;23.10;97.20;;;;;;5032878;28;20208;-63
2023/06/14 08:24:00;;;;;;;1.40;1.30;;;23.10;97.50;;;;;;5032236;28;20224;-63
2023/06/14 08:26:28;;;;;;;1.70;1.60;;;23.20;98.00;;;;;;5032962;28;20216;-63
2023/06/14 08:28:55;;;;;;;1.38;1.27;;;23.30;98.00;;;;;;5033221;28;20232;-65
2023/06/14 08:31:24;;;;;;;1.10;1.10;;;23.40;98.00;;;;;;5032887;28;20212;-62
2023/06/14 08:33:51;;;;;;;1.25;1.23;;;23.30;97.80;;;;;;5033096;28;20323;-63
2023/06/14 08:36:18;;;;;;;1.60;1.50;;;23.50;98.10;;;;;;5030055;28;20205;-63
2023/06/14 08:38:44;;;;;;;1.50;1.40;;;23.70;98.30;;;;;;5032775;28;20362;-61
2023/06/14 08:41:17;;;;;;;1.50;1.40;;;23.80;98.60;;;;;;5032404;28;20236;-62
2023/06/14 08:43:43;;;;;;;1.42;1.33;;;23.90;98.70;;;;;;5033307;28;20192;-63
2023/06/14 08:46:12;;;;;;;1.55;1.52;;;23.90;98.60;;;;;;5032499;28;20201;-62
2023/06/14 08:48:41;;;;;;;1.52;1.42;;;23.80;98.70;;;;;;5032008;28;20228;-63
2023/06/14 08:51:10;;;;;;;1.50;1.40;;;23.60;99.20;;;;;;5033777;28;20212;-62
2023/06/14 08:53:41;;;;;;;1.40;1.40;;;23.70;99.50;;;;;;5033426;28;20315;-62
2023/06/14 08:56:13;;;;;;;1.60;1.40;;;23.90;99.60;;;;;;5034238;28;20204;-63
2023/06/14 08:58:43;;;;;;;2.50;1.60;;;23.90;99.60;;;;;;5033697;28;20232;-62
2023/06/14 09:01:11;;;;;;;1.55;1.45;;;24.20;99.70;;;;;;5034202;28;20454;-63
2023/06/14 09:03:40;;;;;;;1.80;1.45;;;24.00;99.10;;;;;;5034334;28;20255;-63
2023/06/14 09:06:08;;;;;;;1.92;1.48;;;24.20;99.60;;;;;;5034748;28;20212;-62
2023/06/14 09:08:35;;;;;;;1.77;1.50;;;24.30;99.50;;;;;;5033394;28;20228;-61
2023/06/14 09:11:02;;;;;;;1.50;1.40;;;24.50;99.10;;;;;;5032442;28;20212;-62
2023/06/14 09:13:29;;;;;;;1.50;1.40;;;24.60;99.30;;;;;;5035470;28;20220;-63
2023/06/14 09:15:56;;;;;;;1.58;1.48;;;24.80;98.80;;;;;;5035780;28;20213;-63
2023/06/14 09:18:34;;;;;;;1.50;1.30;;;24.80;98.70;;;;;;5035594;28;20211;-62
2023/06/14 09:21:02;;;;;;;1.40;1.30;;;24.80;98.50;;;;;;5034111;28;20613;-61
2023/06/14 09:23:29;;;;;;;1.50;1.40;;;25.10;98.50;;;;;;5034538;28;20205;-62
2023/06/14 09:25:56;;;;;;;1.83;1.40;;;25.10;98.50;;;;;;5033533;28;20208;-62
2023/06/14 09:28:28;;;;;;;1.60;1.50;;;25.20;98.60;;;;;;5031817;28;20205;-63
2023/06/14 09:30:56;;;;;;;1.65;1.52;;;25.10;98.60;;;;;;5031562;28;20829;-63
2023/06/14 09:33:22;;;;;;;3.42;1.45;;;25.20;98.60;;;;;;5032188;28;20224;-63
2023/06/14 09:35:52;;;;;;;1.50;1.40;;;25.30;98.50;;;;;;5031925;28;20219;-61
2023/06/14 09:38:21;;;;;;;1.20;1.20;;;25.60;98.40;;;;;;5031920;28;20208;-64
2023/06/14 09:40:48;;;;;;;1.40;1.40;;;25.90;98.60;;;;;;5031391;28;20275;-64
2023/06/14 09:43:15;;;;;;;1.45;1.25;;;26.10;98.20;;;;;;5032456;28;20208;-64
2023/06/14 09:45:45;;;;;;;1.20;1.20;;;26.30;97.40;;;;;;5032186;28;20208;-63
2023/06/14 09:48:17;;;;;;;3.33;1.40;;;26.30;97.10;;;;;;5033917;28;20205;-63
2023/06/14 09:50:46;;;;;;;1.50;1.30;;;26.30;96.40;;;;;;5040874;28;20267;-62
2023/06/14 09:53:14;;;;;;;1.60;1.50;;;26.20;95.80;;;;;;5035884;28;20220;-63
2023/06/14 09:55:43;;;;;;;2.60;1.30;;;26.30;95.80;;;;;;5032230;28;20213;-64
2023/06/14 09:58:11;;;;;;;1.13;1.13;;;26.40;95.80;;;;;;5031552;28;20220;-63
2023/06/14 10:00:40;;;;;;;1.40;1.30;;;26.40;95.60;;;;;;5031429;28;20232;-64
2023/06/14 10:03:14;;;;;;;1.83;1.48;;;26.20;95.20;;;;;;5031558;28;20200;-63
2023/06/14 10:05:44;;;;;;;1.50;1.40;;;26.30;95.10;;;;;;5032257;28;20566;-65
2023/06/14 10:08:15;;;;;;;1.20;1.20;;;26.40;94.80;;;;;;5031944;28;20204;-63
2023/06/14 10:10:44;;;;;;;1.60;1.50;;;26.40;94.00;;;;;;5031168;28;20197;-61
2023/06/14 10:13:12;;;;;;;1.60;1.50;;;26.60;94.10;;;;;;5031606;28;20721;-63
2023/06/14 10:15:46;;;;;;;1.70;1.60;;;26.80;94.10;;;;;;5031957;28;20342;-63
2023/06/14 10:18:24;;;;;;;1.38;1.38;;;27.00;93.70;;;;;;5031939;28;20196;-62
2023/06/14 10:20:59;;;;;;;1.40;1.33;;;26.70;93.50;;;;;;5031923;28;20201;-64
2023/06/14 10:23:28;;;;;;;1.92;1.83;;;26.30;93.20;;;;;;5030904;28;20196;-64
2023/06/14 10:25:59;;;;;;;1.70;1.60;;;26.00;92.80;;;;;;5031936;28;20212;-62
2023/06/14 10:28:26;;;;;;;1.98;1.50;;;26.30;92.90;;;;;;5031835;28;20193;-62
2023/06/14 10:31:07;;;;;;;1.58;1.48;;;26.40;92.90;;;;;;5031275;28;20291;-63
2023/06/14 10:33:34;;;;;;;4.18;2.05;;;26.30;93.00;;;;;;5031949;28;20300;-64
2023/06/14 10:36:27;;;;;;;3.05;2.85;;;26.40;92.70;;;;;;5031828;28;20692;-64
2023/06/14 10:39:02;;;;;;;2.10;2.00;;;26.40;92.90;;;;;;5020113;28;20351;-64
2023/06/14 10:41:31;;;;;;;1.33;1.25;;;26.40;92.50;;;;;;5037625;28;20239;-64
2023/06/14 10:44:33;;;;;;;1.35;1.25;;;26.60;92.70;;;;;;5030861;28;20666;-62
2023/06/14 10:47:01;;;;;;;1.30;1.30;;;26.80;92.70;;;;;;5030992;28;20200;-64
2023/06/14 10:49:42;;;;;;;3.92;1.77;;;27.00;92.50;;;;;;5033740;28;20564;-62
2023/06/14 10:52:16;;;;;;;2.50;2.40;;;26.90;92.20;;;;;;5035335;28;20598;-62
2023/06/14 10:55:09;;;;;;;2.55;1.60;;;26.50;91.80;;;;;;5035155;28;20228;-64
2023/06/14 10:57:38;;;;;;;1.85;1.38;;;26.70;91.70;;;;;;5035178;28;20281;-62
2023/06/14 11:00:12;;;;;;;2.22;1.90;;;26.80;92.00;;;;;;5034881;28;20228;-63
2023/06/14 11:03:24;;;;;;;5.25;4.95;;;27.00;91.40;;;;;;5034520;28;20208;-64
2023/06/14 11:05:52;;;;;;;2.42;2.22;;;26.80;91.60;;;;;;5034499;28;20266;-63
2023/06/14 11:08:42;;;;;;;2.42;2.20;;;26.70;91.60;;;;;;5033951;28;20212;-64
2023/06/14 11:11:10;;;;;;;4.38;4.10;;;26.70;91.40;;;;;;5034060;28;20189;-64
2023/06/14 11:13:44;;;;;;;2.83;2.72;;;26.60;91.50;;;;;;5033947;28;20228;-64
2023/06/14 11:16:12;;;;;;;2.22;1.98;;;26.60;91.40;;;;;;5034427;28;20232;-64
2023/06/14 11:18:39;;;;;;;1.52;1.30;;;26.50;91.00;;;;;;5034499;28;20225;-64
2023/06/14 11:21:08;;;;;;;1.55;1.45;;;26.50;91.40;;;;;;5034220;28;20618;-64
2023/06/14 11:23:35;;;;;;;4.07;1.60;;;26.70;91.00;;;;;;5034217;28;20200;-64
2023/06/14 11:26:02;;;;;;;1.50;1.40;;;26.90;90.40;;;;;;5040934;28;20359;-63
2023/06/14 11:28:39;;;;;;;2.72;2.50;;;27.00;90.10;;;;;;5040756;28;20300;-62
2023/06/14 11:31:07;;;;;;;5.90;5.60;;;26.90;89.90;;;;;;5034675;28;20273;-64
2023/06/14 11:33:34;;;;;;;3.15;2.38;;;26.90;88.60;;;;;;5035306;28;20239;-63
2023/06/14 11:36:04;;;;;;;2.35;2.05;;;26.80;87.90;;;;;;5035121;28;20201;-62
2023/06/14 11:38:31;;;;;;;2.35;2.25;;;26.80;88.20;;;;;;5036922;28;20201;-64
2023/06/14 11:41:01;;;;;;;3.35;3.10;;;26.80;88.00;;;;;;5037832;28;20211;-64
2023/06/14 11:43:29;;;;;;;1.42;1.33;;;26.90;87.30;;;;;;5038979;28;20614;-64
2023/06/14 11:45:57;;;;;;;1.52;1.42;;;27.00;88.70;;;;;;5036006;28;20209;-62
2023/06/14 11:48:23;;;;;;;1.88;1.77;;;27.00;87.40;;;;;;5033873;28;20204;-64
2023/06/14 11:50:52;;;;;;;1.77;1.67;;;27.00;86.80;;;;;;5033924;28;20219;-63
2023/06/14 11:53:19;;;;;;;1.45;1.35;;;26.80;86.00;;;;;;5034036;28;20220;-64
2023/06/14 11:55:47;;;;;;;1.42;1.33;;;26.70;85.90;;;;;;5035527;28;20212;-62
2023/06/14 11:58:14;;;;;;;1.50;1.40;;;26.70;86.00;;;;;;5034707;28;20687;-61
2023/06/14 12:00:41;;;;;;;1.45;1.35;;;26.90;86.40;;;;;;5034644;28;20216;-63
2023/06/14 12:03:09;;;;;;;2.30;2.20;;;26.80;85.70;;;;;;5033669;28;20200;-62
2023/06/14 12:05:36;;;;;;;1.98;1.88;;;26.90;86.10;;;;;;5033152;28;20209;-64
2023/06/14 12:08:07;;;;;;;4.28;3.95;;;27.10;88.00;;;;;;5032681;28;20741;-63
2023/06/14 12:10:43;;;;;;;3.58;2.45;;;27.00;85.90;;;;;;5032526;28;20286;-64
2023/06/14 12:13:10;;;;;;;2.00;1.90;;;26.80;85.70;;;;;;5032712;28;20228;-63
2023/06/14 12:15:37;;;;;;;4.43;4.13;;;26.90;85.80;;;;;;5042981;22;20211;-83
2023/06/14 12:18:08;;;;;;;2.25;2.15;;;27.00;84.60;;;;;;5050166;22;20225;-63
2023/06/14 12:20:36;;;;;;;1.20;1.20;;;26.90;85.30;;;;;;5042236;28;20207;-62
2023/06/14 12:23:04;;;;;;;4.85;2.55;;;27.20;85.50;;;;;;5037223;28;20267;-63
2023/06/14 12:25:33;;;;;;;7.72;7.40;;;27.20;85.10;;;;;;5032434;28;20201;-64
2023/06/14 12:28:04;;;;;;;1.10;1.08;;;26.90;85.00;;;;;;5032111;28;20224;-64
2023/06/14 12:30:31;;;;;;;2.03;1.92;;;26.80;86.20;;;;;;5031660;28;20203;-64
2023/06/14 12:32:58;;;;;;;3.97;3.67;;;27.00;86.00;;;;;;5032276;28;20204;-64
2023/06/14 12:35:24;;;;;;;2.58;2.47;;;27.00;86.50;;;;;;5032743;28;20211;-64
2023/06/14 12:37:53;;;;;;;2.38;1.60;;;26.90;86.10;;;;;;5032055;28;20290;-64
2023/06/14 12:40:20;;;;;;;1.90;1.77;;;27.00;86.40;;;;;;5032714;28;20291;-65
2023/06/14 12:42:47;;;;;;;1.40;1.30;;;27.10;86.90;;;;;;5032253;28;20215;-63
2023/06/14 12:45:15;;;;;;;2.90;2.80;;;27.30;86.30;;;;;;5031888;28;20615;-62
2023/06/14 12:47:42;;;;;;;3.42;2.08;;;27.10;85.50;;;;;;5032138;28;20264;-64
2023/06/14 12:50:09;;;;;;;1.50;1.40;;;27.00;86.20;;;;;;5031732;28;20626;-65
2023/06/14 12:52:36;;;;;;;1.70;1.70;;;27.20;86.10;;;;;;5031739;28;20205;-65
2023/06/14 12:55:06;;;;;;;2.22;2.13;;;27.20;85.50;;;;;;5032039;28;20278;-63